createdAt,value
2022-07-26T00:00:07.272Z,6.53
2022-07-26T00:02:36.262Z,6.82
2022-07-26T00:05:05.832Z,6.30
2022-07-26T00:07:36.035Z,6.45
2022-07-26T00:10:06.100Z,6.20
2022-07-26T00:12:34.972Z,6.32
2022-07-26T00:15:05.812Z,6.93
2022-07-26T00:17:34.672Z,6.60
2022-07-26T00:20:03.622Z,5.88
2022-07-26T00:22:35.640Z,6.20
2022-07-26T00:25:07.302Z,6.50
2022-07-26T00:27:37.687Z,6.32
2022-07-26T00:30:08.716Z,6.82
2022-07-26T00:32:37.761Z,5.90
2022-07-26T00:35:06.856Z,6.30
2022-07-26T00:37:35.790Z,6.10
2022-07-26T00:40:04.691Z,6.28
2022-07-26T00:42:52.050Z,5.65
2022-07-26T00:45:22.381Z,5.95
2022-07-26T00:47:51.595Z,6.63
2022-07-26T00:50:20.851Z,6.45
2022-07-26T00:52:50.171Z,6.03
2022-07-26T00:55:19.162Z,6.93
2022-07-26T00:57:48.091Z,5.72
2022-07-26T01:00:20.335Z,6.27
2022-07-26T01:02:51.233Z,5.80
2022-07-26T01:05:20.256Z,6.07
2022-07-26T01:07:49.133Z,5.72
2022-07-26T01:10:18.110Z,6.03
2022-07-26T01:12:47.022Z,6.07
2022-07-26T01:15:16.210Z,6.38
2022-07-26T01:17:45.082Z,6.15
2022-07-26T01:20:15.447Z,6.20
2022-07-26T01:22:46.024Z,6.45
2022-07-26T01:25:15.142Z,6.20
2022-07-26T01:27:44.416Z,6.20
2022-07-26T01:30:14.078Z,5.78
2022-07-26T01:32:42.933Z,5.72
2022-07-26T01:35:30.853Z,6.07
2022-07-26T01:38:01.275Z,6.43
2022-07-26T01:40:50.952Z,5.57
2022-07-26T01:43:19.843Z,6.22
2022-07-26T01:45:49.143Z,5.50
2022-07-26T01:48:36.974Z,6.25
2022-07-26T01:51:07.195Z,5.80
2022-07-26T01:53:38.011Z,5.60
2022-07-26T01:56:07.315Z,5.75
2022-07-26T01:58:36.166Z,5.72
2022-07-26T02:01:05.193Z,5.80
2022-07-26T02:03:33.972Z,6.07
2022-07-26T02:06:03.042Z,5.72
2022-07-26T02:08:32.340Z,6.30
2022-07-26T02:11:04.265Z,5.90
2022-07-26T02:13:33.443Z,5.90
2022-07-26T02:16:02.395Z,5.30
2022-07-26T02:18:49.775Z,5.38
2022-07-26T02:21:18.705Z,5.88
2022-07-26T02:23:47.532Z,5.38
2022-07-26T02:26:18.108Z,5.53
2022-07-26T02:28:47.024Z,5.67
2022-07-26T02:31:15.922Z,5.38
2022-07-26T02:33:44.978Z,6.03
2022-07-26T02:36:13.827Z,5.75
2022-07-26T02:38:42.843Z,5.50
2022-07-26T02:41:11.735Z,5.87
2022-07-26T02:43:42.216Z,6.45
2022-07-26T02:46:11.254Z,6.47
2022-07-26T02:48:40.219Z,6.03
2022-07-26T02:51:10.306Z,6.20
2022-07-26T02:53:39.391Z,5.57
2022-07-26T02:56:08.994Z,5.97
2022-07-26T02:58:38.370Z,5.75
2022-07-26T03:01:09.003Z,5.63
2022-07-26T03:03:38.264Z,5.80
2022-07-26T03:06:07.248Z,7.00
2022-07-26T03:08:36.302Z,7.68
2022-07-26T03:11:09.005Z,5.90
2022-07-26T03:13:40.806Z,6.18
2022-07-26T03:16:11.251Z,23.92
2022-07-26T03:18:40.449Z,69.10
2022-07-26T03:21:09.520Z,11.70
2022-07-26T03:23:38.623Z,6.80
2022-07-26T03:26:07.586Z,7.70
2022-07-26T03:28:36.657Z,7.13
2022-07-26T03:31:05.576Z,5.47
2022-07-26T03:33:36.073Z,5.97
2022-07-26T03:36:05.221Z,5.45
2022-07-26T03:38:40.785Z,5.15
2022-07-26T03:41:09.680Z,5.07
2022-07-26T03:43:42.679Z,5.23
2022-07-26T03:46:11.573Z,5.10
2022-07-26T03:48:42.044Z,5.63
2022-07-26T03:51:11.201Z,5.30
2022-07-26T03:53:40.150Z,6.28
2022-07-26T03:56:26.587Z,6.67
2022-07-26T03:58:55.556Z,5.80
2022-07-26T04:01:24.481Z,5.85
2022-07-26T04:03:55.135Z,6.00
2022-07-26T04:06:42.495Z,5.47
2022-07-26T04:09:12.239Z,5.50
2022-07-26T04:11:41.558Z,5.05
2022-07-26T04:14:11.035Z,5.22
2022-07-26T04:16:43.402Z,5.30
2022-07-26T04:19:32.732Z,6.80
2022-07-26T04:22:07.311Z,6.77
2022-07-26T04:24:36.134Z,5.80
2022-07-26T04:27:05.379Z,5.93
2022-07-26T04:29:35.271Z,5.97
2022-07-26T04:32:04.239Z,5.35
2022-07-26T04:34:34.534Z,5.80
2022-07-26T04:37:03.572Z,5.07
2022-07-26T04:39:32.410Z,5.97
2022-07-26T04:42:01.418Z,12.52
2022-07-26T04:44:30.267Z,6.43
2022-07-26T04:46:59.379Z,6.13
2022-07-26T04:49:28.326Z,6.57
2022-07-26T04:51:59.683Z,6.55
2022-07-26T04:54:28.782Z,6.05
2022-07-26T04:56:57.633Z,7.45
2022-07-26T04:59:26.923Z,22.73
2022-07-26T05:01:55.858Z,5.90
2022-07-26T05:04:43.491Z,5.80
2022-07-26T05:07:13.925Z,5.75
2022-07-26T05:09:42.775Z,5.65
2022-07-26T05:12:12.096Z,48.07
2022-07-26T05:14:41.098Z,15.82
2022-07-26T05:17:10.559Z,6.80
2022-07-26T05:19:39.696Z,6.32
2022-07-26T05:22:08.716Z,6.70
2022-07-26T05:24:39.012Z,7.20
2022-07-26T05:27:08.069Z,9.18
2022-07-26T05:29:36.946Z,8.43
2022-07-26T05:32:06.499Z,6.85
2022-07-26T05:34:35.393Z,6.47
2022-07-26T05:37:04.388Z,6.63
2022-07-26T05:39:33.246Z,6.78
2022-07-26T05:42:03.786Z,6.63
2022-07-26T05:44:32.645Z,6.07
2022-07-26T05:47:01.728Z,6.53
2022-07-26T05:49:39.711Z,6.27
2022-07-26T05:52:09.587Z,6.10
2022-07-26T05:54:38.606Z,6.30
2022-07-26T05:57:09.010Z,34.97
2022-07-26T05:59:37.991Z,21.75
2022-07-26T06:02:08.970Z,10.73
2022-07-26T06:04:38.107Z,7.70
2022-07-26T06:07:07.167Z,7.20
2022-07-26T06:09:38.890Z,6.20
2022-07-26T06:12:09.730Z,6.43
2022-07-26T06:14:38.698Z,6.03
2022-07-26T06:17:07.798Z,5.82
2022-07-26T06:19:36.756Z,5.97
2022-07-26T06:22:05.819Z,8.00
2022-07-26T06:24:34.670Z,7.03
2022-07-26T06:27:23.954Z,6.20
2022-07-26T06:29:53.571Z,5.80
2022-07-26T06:32:22.477Z,10.38
2022-07-26T06:34:51.531Z,7.53
2022-07-26T06:37:20.399Z,6.93
2022-07-26T06:39:49.434Z,7.10
2022-07-26T06:42:18.351Z,6.40
2022-07-26T06:45:08.104Z,6.97
2022-07-26T06:47:37.171Z,6.40
2022-07-26T06:50:06.255Z,6.28
2022-07-26T06:52:35.341Z,6.90
2022-07-26T06:55:04.349Z,6.57
2022-07-26T06:57:33.481Z,6.55
2022-07-26T07:00:16.007Z,7.05
2022-07-26T07:02:44.957Z,8.07
2022-07-26T07:05:14.211Z,7.00
2022-07-26T07:07:43.537Z,7.70
2022-07-26T07:10:12.798Z,6.90
2022-07-26T07:12:43.871Z,6.20
2022-07-26T07:15:12.834Z,6.05
2022-07-26T07:17:43.309Z,6.00
2022-07-26T07:20:12.829Z,6.10
2022-07-26T07:22:41.805Z,5.85
2022-07-26T07:25:10.832Z,5.68
2022-07-26T07:27:44.070Z,5.45
2022-07-26T07:30:13.385Z,4.80
2022-07-26T07:32:44.932Z,6.35
2022-07-26T07:35:14.587Z,5.50
2022-07-26T07:37:53.769Z,5.70
2022-07-26T07:40:23.521Z,6.15
2022-07-26T07:42:52.389Z,6.97
2022-07-26T07:45:21.459Z,15.48
2022-07-26T07:47:51.775Z,10.68
2022-07-26T07:50:20.821Z,13.10
2022-07-26T07:52:49.768Z,12.27
2022-07-26T07:55:37.040Z,12.50
2022-07-26T07:58:28.129Z,6.63
2022-07-26T08:00:58.838Z,6.47
2022-07-26T08:03:38.519Z,10.43
2022-07-26T08:06:09.139Z,9.43
2022-07-26T08:08:38.311Z,17.43
2022-07-26T08:11:08.032Z,22.77
2022-07-26T08:13:37.270Z,20.52
2022-07-26T08:16:09.491Z,19.35
2022-07-26T08:18:55.673Z,19.40
2022-07-26T08:21:28.320Z,15.90
2022-07-26T08:23:58.253Z,10.68
2022-07-26T08:26:27.143Z,10.93
2022-07-26T08:28:59.856Z,16.98
2022-07-26T08:31:29.765Z,15.23
2022-07-26T08:34:00.219Z,15.07
2022-07-26T08:36:32.615Z,13.77
2022-07-26T08:39:02.043Z,8.10
2022-07-26T08:41:30.944Z,8.13
2022-07-26T08:44:06.111Z,11.77
2022-07-26T08:46:36.187Z,9.20
2022-07-26T08:49:07.271Z,7.47
2022-07-26T08:51:54.804Z,8.95
2022-07-26T08:54:23.786Z,11.30
2022-07-26T08:56:53.069Z,9.90
2022-07-26T08:59:23.432Z,5.63
2022-07-26T09:01:54.374Z,4.93
2022-07-26T09:04:33.852Z,4.03
2022-07-26T09:07:04.667Z,4.20
2022-07-26T09:09:33.667Z,4.00
2022-07-26T09:12:14.372Z,3.70
2022-07-26T09:14:43.387Z,5.65
2022-07-26T09:17:12.220Z,4.93
2022-07-26T09:19:42.846Z,3.78
2022-07-26T09:22:12.523Z,3.58
2022-07-26T09:24:42.623Z,3.13
2022-07-26T09:27:11.954Z,3.70
2022-07-26T09:29:44.678Z,3.90
2022-07-26T09:32:17.304Z,4.45
2022-07-26T09:34:53.074Z,4.75
2022-07-26T09:37:37.365Z,4.50
2022-07-26T09:40:07.114Z,4.65
2022-07-26T09:42:35.979Z,5.05
2022-07-26T09:45:23.466Z,5.10
2022-07-26T09:47:52.573Z,5.18
2022-07-26T09:50:23.340Z,6.17
2022-07-26T09:53:11.009Z,5.65
2022-07-26T09:55:55.528Z,6.13
2022-07-26T09:58:24.694Z,13.18
2022-07-26T10:00:55.594Z,11.38
2022-07-26T10:03:26.822Z,15.27
2022-07-26T10:05:57.531Z,23.92
2022-07-26T10:08:26.907Z,7.72
2022-07-26T10:10:56.440Z,6.30
2022-07-26T10:13:25.959Z,8.35
2022-07-26T10:15:56.887Z,8.33
2022-07-26T10:18:46.218Z,7.95
2022-07-26T10:21:23.577Z,8.65
2022-07-26T10:23:52.998Z,6.05
2022-07-26T10:26:38.003Z,6.10
2022-07-26T10:29:26.836Z,5.30
2022-07-26T10:32:14.948Z,5.35
2022-07-26T10:34:43.979Z,6.00
2022-07-26T10:37:21.692Z,6.65
2022-07-26T10:39:50.842Z,9.02
2022-07-26T10:42:19.798Z,6.13
2022-07-26T10:44:49.572Z,4.53
2022-07-26T10:47:19.026Z,7.25
2022-07-26T10:49:55.107Z,6.15
2022-07-26T10:52:26.669Z,5.63
2022-07-26T10:55:17.377Z,6.00
2022-07-26T10:57:47.147Z,7.00
2022-07-26T11:00:17.538Z,5.82
2022-07-26T11:03:04.959Z,5.25
2022-07-26T11:05:35.157Z,5.53
2022-07-26T11:08:10.541Z,5.30
2022-07-26T11:10:57.894Z,6.40
2022-07-26T11:13:26.931Z,5.13
2022-07-26T11:16:00.447Z,5.57
2022-07-26T11:18:32.694Z,5.78
2022-07-26T11:21:10.021Z,5.37
2022-07-26T11:23:40.740Z,6.63
2022-07-26T11:26:13.305Z,6.03
2022-07-26T11:28:48.732Z,5.43
2022-07-26T11:31:20.015Z,5.53
2022-07-26T11:33:51.216Z,5.57
2022-07-26T11:36:20.620Z,5.63
2022-07-26T11:38:51.508Z,5.22
2022-07-26T11:41:20.752Z,4.57
2022-07-26T11:44:04.013Z,4.90
2022-07-26T11:46:34.704Z,4.80
2022-07-26T11:49:03.971Z,4.50
2022-07-26T11:51:32.968Z,5.43
2022-07-26T11:54:04.015Z,5.72
2022-07-26T11:56:33.214Z,4.90
2022-07-26T11:59:02.119Z,24.47
2022-07-26T12:01:31.164Z,9.60
2022-07-26T12:04:00.188Z,7.05
2022-07-26T12:06:30.599Z,35.92
2022-07-26T12:08:59.714Z,47.60
2022-07-26T12:11:40.442Z,67.00
2022-07-26T12:14:12.536Z,58.50
2022-07-26T12:16:45.724Z,52.95
2022-07-26T12:19:27.942Z,30.50
2022-07-26T12:21:57.863Z,27.52
2022-07-26T12:24:36.663Z,34.60
2022-07-26T12:27:07.891Z,29.17
2022-07-26T12:29:37.670Z,26.52
2022-07-26T12:32:12.313Z,27.95
2022-07-26T12:34:42.413Z,17.92
2022-07-26T12:37:14.800Z,11.93
2022-07-26T12:39:44.189Z,9.32
2022-07-26T12:42:33.354Z,16.00
2022-07-26T12:45:03.966Z,6.57
2022-07-26T12:47:32.966Z,6.85
2022-07-26T12:50:03.658Z,27.23
2022-07-26T12:52:34.034Z,7.03
2022-07-26T12:55:03.083Z,6.88
2022-07-26T12:57:33.440Z,5.10
2022-07-26T13:00:06.739Z,12.57
2022-07-26T13:02:35.695Z,5.33
2022-07-26T13:05:05.375Z,5.45
2022-07-26T13:07:34.409Z,5.65
2022-07-26T13:12:53.794Z,8.52
2022-07-26T13:15:22.636Z,6.17
2022-07-26T13:17:52.051Z,4.25
2022-07-26T13:20:22.019Z,9.40
2022-07-26T13:22:51.031Z,13.60
2022-07-26T13:25:19.921Z,11.57
2022-07-26T13:27:50.120Z,25.40
2022-07-26T13:30:22.259Z,30.67
2022-07-26T13:32:51.390Z,39.58
2022-07-26T13:35:20.269Z,23.48
2022-07-26T13:37:49.283Z,31.00
2022-07-26T13:40:18.280Z,100.00
2022-07-26T13:42:47.307Z,42.13
2022-07-26T13:45:16.127Z,30.65
2022-07-26T13:47:47.240Z,12.88
2022-07-26T13:50:34.786Z,23.48
2022-07-26T13:53:03.861Z,19.10
2022-07-26T13:55:32.786Z,12.70
2022-07-26T13:58:07.596Z,12.32
2022-07-26T14:00:38.783Z,37.38
2022-07-26T14:03:09.329Z,19.73
2022-07-26T14:05:57.062Z,6.37
2022-07-26T14:08:26.030Z,9.02
2022-07-26T14:10:54.823Z,15.88
2022-07-26T14:13:23.877Z,19.45
2022-07-26T14:15:52.707Z,19.40
2022-07-26T14:18:23.097Z,25.53
2022-07-26T14:21:10.825Z,12.73
2022-07-26T14:23:40.071Z,8.05
2022-07-26T14:26:08.987Z,9.60
2022-07-26T14:28:38.137Z,9.77
2022-07-26T14:31:07.111Z,10.13
2022-07-26T14:33:37.603Z,12.52
2022-07-26T14:36:06.794Z,9.20
2022-07-26T14:38:35.886Z,14.15
2022-07-26T14:41:04.778Z,9.02
2022-07-26T14:43:34.029Z,14.77
2022-07-26T14:46:03.315Z,9.20
2022-07-26T14:48:53.388Z,11.02
2022-07-26T14:51:22.763Z,21.50
2022-07-26T14:53:52.159Z,16.67
2022-07-26T14:56:21.103Z,12.80
2022-07-26T14:58:49.988Z,20.42
2022-07-26T15:01:19.222Z,18.33
2022-07-26T15:03:50.206Z,14.27
2022-07-26T15:06:19.224Z,16.42
2022-07-26T15:08:49.623Z,12.97
2022-07-26T15:11:18.552Z,24.67
2022-07-26T15:13:47.426Z,26.90
2022-07-26T15:16:16.614Z,20.77
2022-07-26T15:18:45.517Z,10.43
2022-07-26T15:21:15.850Z,19.27
2022-07-26T15:23:44.692Z,16.90
2022-07-26T15:26:15.085Z,8.20
2022-07-26T15:28:44.094Z,8.93
2022-07-26T15:31:12.976Z,10.80
2022-07-26T15:33:41.998Z,7.43
2022-07-26T15:36:10.910Z,9.98
2022-07-26T15:38:44.768Z,7.85
2022-07-26T15:41:15.223Z,7.95
2022-07-26T15:43:48.768Z,6.32
2022-07-26T15:46:18.515Z,7.23
2022-07-26T15:48:48.549Z,6.63
2022-07-26T15:51:17.639Z,5.90
2022-07-26T15:53:46.860Z,7.30
2022-07-26T15:56:17.446Z,7.30
2022-07-26T15:58:46.358Z,8.13
2022-07-26T16:01:15.507Z,7.63
2022-07-26T16:03:44.480Z,7.10
2022-07-26T16:06:13.551Z,6.45
2022-07-26T16:09:05.458Z,6.93
2022-07-26T16:11:33.008Z,6.60
2022-07-26T16:14:02.252Z,7.25
2022-07-26T16:16:31.263Z,7.03
2022-07-26T16:19:00.321Z,5.80
2022-07-26T16:21:29.185Z,6.35
2022-07-26T16:23:59.864Z,6.33
2022-07-26T16:26:33.721Z,7.05
2022-07-26T16:29:02.543Z,7.28
2022-07-26T16:31:31.865Z,7.00
2022-07-26T16:34:00.799Z,6.38
2022-07-26T16:36:30.750Z,6.40
2022-07-26T16:38:59.693Z,6.32
2022-07-26T16:41:29.333Z,6.70
2022-07-26T16:43:59.846Z,6.10
2022-07-26T16:46:29.002Z,5.85
2022-07-26T16:48:58.072Z,6.03
2022-07-26T16:51:27.369Z,6.03
2022-07-26T16:53:56.323Z,6.57
2022-07-26T16:56:25.399Z,5.80
2022-07-26T16:58:54.275Z,6.10
2022-07-26T17:01:24.765Z,6.33
2022-07-26T17:03:53.660Z,6.47
2022-07-26T17:06:23.018Z,6.63
2022-07-26T17:08:52.226Z,6.20
2022-07-26T17:11:21.190Z,6.20
2022-07-26T17:13:50.037Z,5.47
2022-07-26T17:16:21.377Z,5.55
2022-07-26T17:18:55.335Z,5.68
2022-07-26T17:21:24.482Z,5.72
2022-07-26T17:23:53.409Z,6.05
2022-07-26T17:26:22.364Z,6.53
2022-07-26T17:28:51.202Z,6.30
2022-07-26T17:31:20.210Z,5.88
2022-07-26T17:33:49.324Z,6.15
2022-07-26T17:36:24.176Z,5.10
2022-07-26T17:38:53.324Z,5.33
2022-07-26T17:41:23.567Z,5.80
2022-07-26T17:44:03.308Z,5.38
2022-07-26T17:46:33.961Z,5.47
2022-07-26T17:49:03.075Z,4.85
2022-07-26T17:51:33.574Z,5.70
2022-07-26T17:54:02.646Z,5.45
2022-07-26T17:56:31.694Z,6.03
2022-07-26T17:59:19.056Z,5.50
2022-07-26T18:01:50.470Z,5.32
2022-07-26T18:04:22.772Z,5.83
2022-07-26T18:06:53.194Z,5.70
2022-07-26T18:09:22.211Z,6.05
2022-07-26T18:11:51.130Z,5.07
2022-07-26T18:14:20.125Z,5.65
2022-07-26T18:16:53.962Z,5.30
2022-07-26T18:19:23.735Z,5.32
2022-07-26T18:21:54.071Z,5.35
2022-07-26T18:24:23.131Z,4.78
2022-07-26T18:26:52.127Z,9.70
2022-07-26T18:29:39.307Z,9.90
2022-07-26T18:32:08.442Z,8.75
2022-07-26T18:34:37.278Z,6.07
2022-07-26T18:37:26.070Z,6.00
2022-07-26T18:39:57.828Z,5.38
2022-07-26T18:42:27.376Z,5.30
2022-07-26T18:44:56.351Z,5.18
2022-07-26T18:47:25.357Z,7.28
2022-07-26T18:49:54.302Z,18.15
2022-07-26T18:52:28.537Z,16.05
2022-07-26T18:55:03.048Z,12.00
2022-07-26T18:57:32.179Z,9.65
2022-07-26T19:00:01.071Z,6.03
2022-07-26T19:02:30.153Z,8.00
2022-07-26T19:04:59.019Z,23.50
2022-07-26T19:07:28.219Z,9.77
2022-07-26T19:09:58.831Z,7.07
2022-07-26T19:12:29.580Z,7.22
2022-07-26T19:15:00.190Z,5.10
2022-07-26T19:17:47.882Z,4.50
2022-07-26T19:20:16.862Z,5.60
2022-07-26T19:22:47.577Z,6.22
2022-07-26T19:25:16.580Z,5.00
2022-07-26T19:27:46.912Z,5.30
2022-07-26T19:30:15.887Z,5.05
2022-07-26T19:32:44.726Z,46.23
2022-07-26T19:35:13.774Z,65.65
2022-07-26T19:37:42.634Z,49.25
2022-07-26T19:40:12.012Z,10.98
2022-07-26T19:42:42.329Z,12.38
2022-07-26T19:45:13.225Z,23.50
2022-07-26T19:47:42.412Z,8.20
2022-07-26T19:50:12.179Z,5.15
2022-07-26T19:52:41.395Z,35.00
2022-07-26T19:55:10.803Z,15.30
2022-07-26T19:57:39.758Z,6.20
2022-07-26T20:00:09.308Z,4.60
2022-07-26T20:02:42.930Z,4.50
2022-07-26T20:05:13.027Z,4.82
2022-07-26T20:07:42.071Z,6.05
2022-07-26T20:10:11.132Z,7.03
2022-07-26T20:12:40.020Z,21.90
2022-07-26T20:15:09.246Z,9.40
2022-07-26T20:17:39.944Z,12.25
2022-07-26T20:20:28.779Z,6.05
2022-07-26T20:22:57.886Z,4.73
2022-07-26T20:25:26.822Z,5.75
2022-07-26T20:27:55.831Z,4.85
2022-07-26T20:30:24.714Z,4.88
2022-07-26T20:32:53.662Z,10.60
2022-07-26T20:35:22.623Z,10.97
2022-07-26T20:37:53.257Z,11.18
2022-07-26T20:40:22.485Z,6.57
2022-07-26T20:42:51.907Z,4.88
2022-07-26T20:45:21.324Z,5.07
2022-07-26T20:47:50.188Z,6.27
2022-07-26T20:50:19.201Z,15.32
2022-07-26T20:52:48.750Z,11.30
2022-07-26T20:55:19.457Z,4.50
2022-07-26T20:57:50.346Z,4.65
2022-07-26T21:00:19.386Z,4.63
2022-07-26T21:02:48.314Z,3.17
2022-07-26T21:05:17.615Z,3.97
2022-07-26T21:07:58.514Z,3.60
2022-07-26T21:10:30.756Z,3.67
2022-07-26T21:13:01.319Z,3.43
2022-07-26T21:15:30.390Z,3.88
2022-07-26T21:17:59.319Z,3.45
2022-07-26T21:20:28.244Z,2.92
2022-07-26T21:23:08.004Z,3.08
2022-07-26T21:25:46.751Z,2.90
2022-07-26T21:28:15.733Z,2.88
2022-07-26T21:30:44.879Z,2.97
2022-07-26T21:33:13.818Z,3.47
2022-07-26T21:35:42.991Z,3.17
2022-07-26T21:38:11.964Z,3.10
2022-07-26T21:40:41.130Z,3.58
2022-07-26T21:43:11.437Z,3.00
2022-07-26T21:45:40.505Z,2.80
2022-07-26T21:48:09.430Z,3.20
2022-07-26T21:50:38.396Z,3.07
2022-07-26T21:53:07.229Z,2.80
2022-07-26T21:55:36.384Z,10.77
2022-07-26T21:58:05.218Z,3.90
2022-07-26T22:00:36.922Z,3.50
2022-07-26T22:03:06.079Z,2.90
2022-07-26T22:05:39.288Z,9.32
2022-07-26T22:08:26.871Z,20.38
2022-07-26T22:10:56.083Z,4.65
2022-07-26T22:13:25.168Z,4.45
2022-07-26T22:15:55.676Z,3.23
2022-07-26T22:18:24.484Z,3.08
2022-07-26T22:20:53.407Z,3.67
2022-07-26T22:23:23.209Z,3.15
2022-07-26T22:25:52.184Z,35.17
2022-07-26T22:28:21.015Z,13.73
2022-07-26T22:30:50.112Z,65.78
2022-07-26T22:33:20.764Z,9.48
2022-07-26T22:35:49.835Z,3.25
2022-07-26T22:38:18.894Z,2.92
2022-07-26T22:40:47.816Z,2.70
2022-07-26T22:43:16.673Z,2.60
2022-07-26T22:46:04.385Z,2.50
2022-07-26T22:48:38.128Z,2.30
2022-07-26T22:51:07.804Z,2.38
2022-07-26T22:53:36.663Z,2.70
2022-07-26T22:56:05.763Z,2.28
2022-07-26T22:58:34.636Z,2.25
2022-07-26T23:01:03.738Z,2.00
2022-07-26T23:03:32.687Z,2.15
2022-07-26T23:06:06.529Z,2.77
2022-07-26T23:08:50.021Z,2.53
2022-07-26T23:11:18.884Z,2.92
2022-07-26T23:13:48.409Z,2.50
2022-07-26T23:16:17.384Z,2.58
2022-07-26T23:18:46.647Z,3.63
2022-07-26T23:21:16.932Z,2.72
2022-07-26T23:23:46.044Z,2.60
2022-07-26T23:26:14.957Z,3.08
2022-07-26T23:28:43.917Z,2.33
2022-07-26T23:31:13.018Z,2.30
2022-07-26T23:33:50.418Z,2.30
2022-07-26T23:36:26.984Z,2.13
2022-07-26T23:38:56.270Z,2.05
2022-07-26T23:41:25.179Z,2.05
2022-07-26T23:43:54.402Z,2.40
2022-07-26T23:46:23.435Z,2.40
2022-07-26T23:48:52.631Z,1.98
2022-07-26T23:51:21.518Z,2.13
2022-07-26T23:53:51.942Z,2.08
2022-07-26T23:56:21.013Z,2.17
2022-07-26T23:58:49.876Z,1.95
